createdAt,value
2022-09-16T00:00:54.019Z,6.13
2022-09-16T00:03:21.851Z,7.03
2022-09-16T00:05:51.140Z,7.03
2022-09-16T00:08:20.432Z,7.03
2022-09-16T00:10:48.327Z,5.77
2022-09-16T00:13:16.132Z,8.27
2022-09-16T00:15:45.866Z,6.03
2022-09-16T00:18:14.876Z,5.65
2022-09-16T00:20:46.634Z,6.45
2022-09-16T00:23:14.502Z,6.72
2022-09-16T00:25:42.536Z,6.07
2022-09-16T00:28:10.421Z,5.93
2022-09-16T00:30:38.127Z,7.43
2022-09-16T00:33:07.281Z,5.57
2022-09-16T00:35:35.021Z,5.45
2022-09-16T00:38:02.752Z,5.63
2022-09-16T00:40:30.530Z,5.80
2022-09-16T00:43:00.091Z,6.72
2022-09-16T00:45:31.673Z,4.18
2022-09-16T00:48:01.489Z,5.43
2022-09-16T00:50:38.000Z,7.30
2022-09-16T00:53:07.193Z,4.43
2022-09-16T00:55:37.458Z,6.15
2022-09-16T00:58:08.041Z,5.88
2022-09-16T01:00:36.980Z,4.75
2022-09-16T01:03:05.430Z,9.57
2022-09-16T01:05:35.278Z,4.95
2022-09-16T01:08:03.425Z,6.13
2022-09-16T01:10:31.543Z,5.15
2022-09-16T01:13:01.823Z,6.53
2022-09-16T01:15:33.566Z,6.18
2022-09-16T01:18:13.115Z,7.78
2022-09-16T01:21:12.980Z,4.75
2022-09-16T01:24:13.556Z,5.13
2022-09-16T01:26:58.994Z,6.05
2022-09-16T01:29:51.891Z,4.50
2022-09-16T01:32:27.803Z,3.83
2022-09-16T01:35:02.724Z,5.70
2022-09-16T01:37:35.565Z,4.90
2022-09-16T01:40:09.017Z,6.67
2022-09-16T01:42:41.056Z,9.80
2022-09-16T01:45:14.249Z,6.28
2022-09-16T01:47:51.008Z,4.78
2022-09-16T01:50:24.235Z,4.47
2022-09-16T01:52:59.653Z,4.72
2022-09-16T01:55:31.059Z,5.47
2022-09-16T01:58:02.008Z,7.30
2022-09-16T02:00:31.404Z,5.00
2022-09-16T02:03:04.902Z,6.70
2022-09-16T02:05:35.885Z,5.75
2022-09-16T02:08:07.196Z,4.10
2022-09-16T02:10:37.656Z,5.60
2022-09-16T02:13:10.773Z,5.07
2022-09-16T02:15:39.726Z,5.45
2022-09-16T02:18:11.951Z,3.77
2022-09-16T02:20:42.588Z,6.32
2022-09-16T02:23:13.580Z,5.22
2022-09-16T02:25:43.620Z,8.63
2022-09-16T02:28:15.841Z,6.90
2022-09-16T02:30:45.261Z,5.25
2022-09-16T02:33:16.449Z,4.90
2022-09-16T02:35:47.572Z,6.07
2022-09-16T02:38:18.622Z,4.53
2022-09-16T02:40:49.474Z,5.22
2022-09-16T02:43:17.529Z,5.60
2022-09-16T02:45:48.462Z,5.90
2022-09-16T02:48:23.762Z,5.55
2022-09-16T02:50:54.976Z,5.15
2022-09-16T02:53:31.843Z,4.60
2022-09-16T02:56:02.236Z,7.13
2022-09-16T02:58:30.553Z,4.38
2022-09-16T03:00:58.972Z,5.65
2022-09-16T03:03:28.169Z,6.63
2022-09-16T03:06:16.560Z,4.38
2022-09-16T03:08:45.330Z,5.20
2022-09-16T03:11:29.940Z,4.47
2022-09-16T03:14:10.535Z,5.55
2022-09-16T03:16:46.206Z,4.65
2022-09-16T03:19:21.217Z,6.28
2022-09-16T03:21:56.254Z,4.00
2022-09-16T03:24:32.497Z,7.13
2022-09-16T03:27:04.806Z,7.20
2022-09-16T03:29:35.761Z,6.82
2022-09-16T03:32:08.869Z,5.53
2022-09-16T03:34:41.199Z,6.63
2022-09-16T03:37:11.770Z,7.30
2022-09-16T03:39:40.366Z,5.20
2022-09-16T03:42:11.417Z,6.55
2022-09-16T03:44:41.042Z,6.68
2022-09-16T03:47:09.060Z,6.47
2022-09-16T03:49:38.608Z,10.18
2022-09-16T03:52:07.076Z,8.02
2022-09-16T03:54:35.172Z,6.00
2022-09-16T03:57:03.194Z,5.60
2022-09-16T03:59:31.116Z,5.68
2022-09-16T04:01:58.983Z,7.68
2022-09-16T04:04:26.830Z,5.03
2022-09-16T04:06:56.107Z,5.57
2022-09-16T04:09:24.035Z,6.43
2022-09-16T04:11:51.846Z,6.03
2022-09-16T04:14:20.314Z,7.38
2022-09-16T04:16:48.143Z,7.43
2022-09-16T04:19:16.001Z,5.72
2022-09-16T04:21:44.038Z,4.83
2022-09-16T04:24:13.663Z,6.95
2022-09-16T04:26:41.690Z,10.20
2022-09-16T04:29:09.769Z,5.78
2022-09-16T04:31:37.855Z,5.10
2022-09-16T04:34:06.216Z,4.73
2022-09-16T04:36:34.173Z,4.60
2022-09-16T04:39:02.333Z,5.57
2022-09-16T04:41:31.459Z,6.18
2022-09-16T04:44:00.841Z,6.55
2022-09-16T04:46:30.227Z,5.13
2022-09-16T04:48:58.179Z,6.88
2022-09-16T04:51:27.369Z,6.70
2022-09-16T04:53:55.973Z,6.23
2022-09-16T04:56:25.902Z,4.35
2022-09-16T04:58:56.263Z,6.80
2022-09-16T05:01:25.337Z,8.85
2022-09-16T05:03:54.373Z,6.85
2022-09-16T05:06:24.071Z,8.07
2022-09-16T05:08:53.134Z,7.38
2022-09-16T05:11:22.218Z,4.93
2022-09-16T05:13:50.074Z,6.93
2022-09-16T05:16:20.402Z,7.88
2022-09-16T05:18:49.618Z,8.63
2022-09-16T05:21:18.911Z,7.35
2022-09-16T05:23:47.363Z,8.68
2022-09-16T05:26:17.670Z,9.33
2022-09-16T05:28:45.670Z,8.13
2022-09-16T05:31:14.841Z,7.50
2022-09-16T05:33:46.101Z,7.07
2022-09-16T05:36:16.082Z,6.35
2022-09-16T05:38:59.123Z,8.75
2022-09-16T05:41:32.280Z,8.98
2022-09-16T05:44:00.524Z,10.18
2022-09-16T05:46:29.521Z,7.38
2022-09-16T05:48:58.791Z,6.72
2022-09-16T05:51:26.811Z,7.75
2022-09-16T05:53:55.757Z,9.63
2022-09-16T05:56:25.802Z,5.47
2022-09-16T05:58:54.336Z,8.40
2022-09-16T06:01:23.497Z,8.00
2022-09-16T06:03:52.176Z,8.85
2022-09-16T06:06:25.130Z,9.57
2022-09-16T06:08:53.885Z,8.38
2022-09-16T06:11:21.718Z,8.02
2022-09-16T06:13:55.600Z,7.30
2022-09-16T06:16:23.817Z,10.43
2022-09-16T06:18:51.737Z,8.55
2022-09-16T06:21:20.973Z,8.82
2022-09-16T06:23:48.858Z,6.88
2022-09-16T06:26:19.034Z,7.77
2022-09-16T06:28:47.868Z,9.57
2022-09-16T06:31:17.673Z,12.35
2022-09-16T06:33:45.896Z,6.00
2022-09-16T06:36:15.363Z,6.90
2022-09-16T06:38:44.919Z,7.75
2022-09-16T06:41:14.333Z,7.65
2022-09-16T06:43:42.858Z,6.93
2022-09-16T06:46:13.608Z,7.07
2022-09-16T06:48:42.250Z,8.73
2022-09-16T06:51:12.509Z,9.23
2022-09-16T06:53:40.458Z,6.22
2022-09-16T06:56:11.087Z,7.45
2022-09-16T06:58:41.146Z,7.57
2022-09-16T07:01:09.258Z,6.60
2022-09-16T07:03:39.159Z,6.30
2022-09-16T07:06:07.833Z,6.18
2022-09-16T07:08:37.807Z,7.72
2022-09-16T07:11:07.463Z,10.82
2022-09-16T07:13:36.880Z,8.77
2022-09-16T07:16:14.672Z,10.97
2022-09-16T07:18:43.051Z,9.10
2022-09-16T07:21:12.725Z,8.98
2022-09-16T07:23:41.435Z,9.63
2022-09-16T07:26:10.923Z,10.27
2022-09-16T07:28:41.124Z,7.13
2022-09-16T07:31:11.130Z,6.73
2022-09-16T07:33:40.649Z,8.10
2022-09-16T07:36:09.823Z,7.13
2022-09-16T07:38:38.063Z,8.70
2022-09-16T07:41:06.921Z,8.88
2022-09-16T07:43:35.128Z,9.52
2022-09-16T07:46:04.617Z,8.57
2022-09-16T07:48:35.069Z,8.80
2022-09-16T07:51:05.378Z,8.57
2022-09-16T07:53:34.030Z,5.28
2022-09-16T07:56:03.368Z,6.20
2022-09-16T07:58:31.334Z,6.37
2022-09-16T08:01:03.996Z,4.97
2022-09-16T08:03:34.186Z,7.10
2022-09-16T08:06:03.446Z,6.73
2022-09-16T08:08:32.120Z,5.50
2022-09-16T08:11:00.453Z,7.82
2022-09-16T08:13:29.621Z,5.50
2022-09-16T08:16:01.177Z,5.93
2022-09-16T08:18:29.309Z,5.87
2022-09-16T08:20:59.383Z,4.90
2022-09-16T08:23:27.220Z,5.00
2022-09-16T08:25:58.670Z,4.75
2022-09-16T08:28:35.848Z,4.32
2022-09-16T08:31:13.906Z,5.13
2022-09-16T08:33:42.812Z,4.35
2022-09-16T08:36:15.772Z,5.10
2022-09-16T08:38:44.502Z,3.67
2022-09-16T08:41:36.052Z,3.78
2022-09-16T08:44:09.905Z,3.60
2022-09-16T08:46:44.405Z,5.57
2022-09-16T08:49:19.104Z,3.88
2022-09-16T08:51:48.453Z,4.20
2022-09-16T08:54:24.145Z,4.18
2022-09-16T08:56:52.095Z,4.00
2022-09-16T08:59:23.349Z,4.25
2022-09-16T09:01:55.860Z,3.47
2022-09-16T09:04:23.939Z,3.17
2022-09-16T09:07:00.794Z,4.30
2022-09-16T09:09:41.935Z,4.55
2022-09-16T09:12:15.216Z,4.10
2022-09-16T09:15:05.866Z,5.47
2022-09-16T09:17:48.072Z,3.33
2022-09-16T09:20:24.031Z,5.32
2022-09-16T09:23:08.769Z,4.68
2022-09-16T09:25:41.392Z,3.40
2022-09-16T09:28:24.522Z,4.57
2022-09-16T09:30:59.167Z,2.25
2022-09-16T09:33:45.999Z,3.60
2022-09-16T09:36:27.863Z,2.70
2022-09-16T09:39:07.691Z,3.53
2022-09-16T09:41:38.217Z,3.03
2022-09-16T09:44:22.453Z,4.22
2022-09-16T09:46:55.639Z,3.90
2022-09-16T09:49:29.130Z,3.95
2022-09-16T09:52:00.393Z,3.03
2022-09-16T09:54:31.449Z,2.65
2022-09-16T09:57:02.671Z,3.95
2022-09-16T09:59:33.007Z,4.17
2022-09-16T10:02:01.821Z,3.47
2022-09-16T10:04:32.736Z,5.70
2022-09-16T10:07:00.701Z,4.63
2022-09-16T10:09:29.994Z,3.77
2022-09-16T10:11:58.277Z,4.33
2022-09-16T10:14:30.970Z,4.40
2022-09-16T10:17:02.876Z,2.90
2022-09-16T10:19:32.521Z,4.67
2022-09-16T10:22:10.825Z,3.80
2022-09-16T10:24:41.974Z,4.22
2022-09-16T10:27:22.669Z,3.53
2022-09-16T10:30:05.106Z,3.28
2022-09-16T10:32:35.024Z,3.38
2022-09-16T10:35:08.029Z,3.40
2022-09-16T10:37:36.062Z,2.65
2022-09-16T10:40:07.409Z,3.90
2022-09-16T10:42:35.459Z,4.40
2022-09-16T10:45:09.692Z,4.13
2022-09-16T10:47:39.008Z,2.83
2022-09-16T10:50:08.228Z,2.90
2022-09-16T10:52:43.486Z,3.72
2022-09-16T10:55:22.800Z,5.20
2022-09-16T10:57:50.897Z,5.75
2022-09-16T11:00:20.122Z,6.45
2022-09-16T11:02:58.791Z,7.50
2022-09-16T11:05:32.476Z,7.85
2022-09-16T11:08:07.013Z,7.10
2022-09-16T11:10:40.471Z,5.28
2022-09-16T11:13:21.421Z,10.38
2022-09-16T11:16:01.228Z,5.63
2022-09-16T11:18:41.894Z,4.57
2022-09-16T11:21:35.305Z,5.22
2022-09-16T11:24:22.712Z,3.10
2022-09-16T11:26:58.183Z,4.40
2022-09-16T11:30:05.134Z,3.10
2022-09-16T11:32:47.027Z,4.32
2022-09-16T11:35:30.702Z,3.78
2022-09-16T11:38:00.962Z,2.70
2022-09-16T11:40:34.930Z,3.67
2022-09-16T11:43:16.941Z,5.20
2022-09-16T11:45:49.367Z,4.75
2022-09-16T11:48:31.052Z,4.07
2022-09-16T11:51:03.216Z,4.20
2022-09-16T11:53:47.035Z,5.47
2022-09-16T11:56:18.448Z,3.53
2022-09-16T11:58:49.732Z,3.13
2022-09-16T12:01:27.232Z,4.63
2022-09-16T12:03:57.851Z,3.17
2022-09-16T12:06:29.163Z,3.60
2022-09-16T12:09:01.852Z,3.55
2022-09-16T12:11:33.970Z,2.85
2022-09-16T12:14:09.760Z,3.13
2022-09-16T12:16:42.149Z,2.80
2022-09-16T12:19:14.604Z,8.82
2022-09-16T12:21:48.105Z,10.77
2022-09-16T12:24:21.434Z,7.80
2022-09-16T12:26:53.120Z,5.07
2022-09-16T12:29:25.253Z,4.20
2022-09-16T12:31:56.615Z,3.88
2022-09-16T12:34:28.071Z,5.60
2022-09-16T12:37:24.037Z,4.82
2022-09-16T12:39:52.080Z,4.30
2022-09-16T12:43:07.318Z,5.63
2022-09-16T12:45:48.635Z,4.72
2022-09-16T12:48:32.848Z,3.53
2022-09-16T12:51:15.343Z,3.47
2022-09-16T12:54:00.576Z,3.53
2022-09-16T12:56:41.747Z,4.70
2022-09-16T12:59:22.610Z,4.65
2022-09-16T13:01:59.026Z,3.83
2022-09-16T13:04:31.139Z,1.60
2022-09-16T13:07:00.004Z,3.15
2022-09-16T13:09:31.838Z,4.05
2022-09-16T13:12:36.838Z,3.60
2022-09-16T13:14:52.079Z,2.20
2022-09-16T13:17:30.642Z,4.15
2022-09-16T13:20:04.165Z,3.72
2022-09-16T13:22:37.532Z,2.60
2022-09-16T13:25:12.244Z,2.63
2022-09-16T13:27:41.573Z,2.28
2022-09-16T13:30:27.846Z,3.83
2022-09-16T13:33:02.594Z,3.72
2022-09-16T13:35:41.901Z,4.47
2022-09-16T13:38:24.649Z,3.57
2022-09-16T13:40:57.525Z,4.00
2022-09-16T13:43:33.411Z,3.28
2022-09-16T13:46:06.844Z,3.67
2022-09-16T13:48:41.014Z,4.05
2022-09-16T13:51:14.756Z,2.78
2022-09-16T13:53:46.211Z,1.58
2022-09-16T13:56:26.069Z,2.73
2022-09-16T13:59:02.423Z,2.50
2022-09-16T14:01:55.572Z,2.90
2022-09-16T14:04:33.354Z,3.50
2022-09-16T14:07:12.019Z,2.53
2022-09-16T14:09:48.627Z,2.53
2022-09-16T14:12:26.081Z,2.60
2022-09-16T14:14:53.997Z,4.50
2022-09-16T14:17:23.426Z,2.88
2022-09-16T14:19:55.028Z,2.67
2022-09-16T14:22:25.753Z,2.92
2022-09-16T14:25:05.767Z,2.90
2022-09-16T14:27:40.912Z,2.40
2022-09-16T14:30:16.817Z,3.95
2022-09-16T14:32:45.134Z,2.97
2022-09-16T14:35:20.183Z,3.58
2022-09-16T14:37:50.106Z,4.07
2022-09-16T14:40:21.003Z,4.93
2022-09-16T14:42:51.537Z,3.22
2022-09-16T14:45:20.000Z,2.63
2022-09-16T14:47:52.772Z,4.20
2022-09-16T14:50:23.859Z,2.63
2022-09-16T14:52:56.632Z,3.80
2022-09-16T14:55:27.076Z,2.47
2022-09-16T14:57:54.922Z,2.08
2022-09-16T15:00:25.854Z,3.85
2022-09-16T15:02:56.275Z,2.83
2022-09-16T15:05:28.860Z,2.83
2022-09-16T15:08:14.968Z,4.78
2022-09-16T15:10:54.193Z,2.60
2022-09-16T15:13:25.066Z,3.47
2022-09-16T15:15:56.096Z,2.30
2022-09-16T15:18:26.994Z,2.53
2022-09-16T15:21:06.023Z,3.65
2022-09-16T15:23:34.269Z,3.28
2022-09-16T15:26:14.462Z,2.50
2022-09-16T15:28:57.059Z,3.70
2022-09-16T15:31:34.583Z,3.78
2022-09-16T15:34:04.630Z,2.97
2022-09-16T15:36:36.232Z,3.45
2022-09-16T15:39:04.396Z,3.70
2022-09-16T15:41:32.142Z,4.00
2022-09-16T15:44:01.926Z,3.80
2022-09-16T15:46:30.866Z,4.65
2022-09-16T15:49:00.097Z,4.32
2022-09-16T15:51:35.589Z,4.97
2022-09-16T15:54:08.204Z,2.93
2022-09-16T15:56:44.447Z,3.10
2022-09-16T15:59:23.349Z,2.80
2022-09-16T16:01:53.783Z,3.30
2022-09-16T16:04:27.743Z,3.88
2022-09-16T16:06:58.327Z,3.23
2022-09-16T16:09:43.780Z,3.40
2022-09-16T16:12:13.873Z,5.32
2022-09-16T16:14:42.048Z,3.10
2022-09-16T16:17:13.966Z,4.03
2022-09-16T16:19:42.926Z,2.83
2022-09-16T16:22:12.456Z,4.50
2022-09-16T16:24:40.656Z,4.32
2022-09-16T16:27:10.041Z,6.05
2022-09-16T16:29:38.990Z,3.42
2022-09-16T16:32:08.863Z,5.43
2022-09-16T16:34:37.993Z,2.95
2022-09-16T16:37:07.320Z,4.50
2022-09-16T16:39:36.535Z,5.67
2022-09-16T16:42:05.749Z,2.27
2022-09-16T16:44:33.978Z,4.80
2022-09-16T16:47:02.608Z,3.03
2022-09-16T16:49:30.353Z,4.22
2022-09-16T16:51:58.787Z,3.55
2022-09-16T16:54:27.296Z,2.53
2022-09-16T16:56:56.949Z,4.25
2022-09-16T16:59:25.195Z,3.50
2022-09-16T17:01:54.474Z,4.13
2022-09-16T17:04:22.325Z,4.00
2022-09-16T17:07:08.271Z,3.47
2022-09-16T17:09:38.238Z,3.83
2022-09-16T17:12:08.142Z,5.82
2022-09-16T17:14:36.065Z,3.90
2022-09-16T17:17:03.872Z,3.73
2022-09-16T17:19:32.297Z,4.13
2022-09-16T17:22:00.041Z,4.13
2022-09-16T17:24:27.765Z,3.25
2022-09-16T17:26:55.510Z,3.88
2022-09-16T17:29:24.633Z,4.05
2022-09-16T17:31:52.495Z,2.70
2022-09-16T17:34:20.446Z,4.28
2022-09-16T17:36:48.537Z,5.28
2022-09-16T17:39:17.833Z,3.70
2022-09-16T17:41:48.557Z,4.47
2022-09-16T17:44:17.797Z,4.15
2022-09-16T17:46:47.434Z,4.18
2022-09-16T17:49:17.634Z,3.90
2022-09-16T17:51:45.565Z,7.05
2022-09-16T17:54:13.793Z,5.30
2022-09-16T17:56:42.486Z,3.75
2022-09-16T17:59:11.282Z,6.55
2022-09-16T18:01:39.670Z,5.65
2022-09-16T18:04:09.026Z,5.50
2022-09-16T18:06:41.942Z,5.82
2022-09-16T18:09:09.948Z,6.30
2022-09-16T18:11:38.633Z,4.50
2022-09-16T18:14:07.898Z,4.47
2022-09-16T18:16:36.117Z,6.10
2022-09-16T18:19:04.361Z,4.93
2022-09-16T18:21:33.820Z,4.38
2022-09-16T18:24:03.205Z,6.40
2022-09-16T18:26:31.879Z,6.68
2022-09-16T18:29:10.541Z,6.15
2022-09-16T18:31:40.248Z,6.95
2022-09-16T18:34:07.929Z,6.35
2022-09-16T18:36:37.590Z,7.72
2022-09-16T18:39:06.140Z,18.92
2022-09-16T18:41:36.728Z,6.55
2022-09-16T18:44:07.451Z,6.90
2022-09-16T18:46:36.874Z,7.78
2022-09-16T18:49:05.391Z,5.82
2022-09-16T18:51:34.646Z,7.70
2022-09-16T18:54:06.377Z,5.78
2022-09-16T18:56:35.876Z,7.57
2022-09-16T18:59:23.027Z,5.60
2022-09-16T19:01:52.296Z,6.63
2022-09-16T19:04:21.782Z,5.82
2022-09-16T19:06:51.478Z,6.03
2022-09-16T19:09:22.237Z,6.05
2022-09-16T19:11:50.718Z,6.95
2022-09-16T19:14:19.005Z,5.47
2022-09-16T19:16:47.224Z,7.07
2022-09-16T19:19:15.999Z,7.97
2022-09-16T19:21:44.357Z,6.57
2022-09-16T19:24:14.041Z,7.97
2022-09-16T19:26:44.423Z,8.73
2022-09-16T19:29:13.281Z,9.80
2022-09-16T19:31:42.826Z,9.85
2022-09-16T19:34:11.009Z,7.60
2022-09-16T19:36:39.596Z,7.70
2022-09-16T19:39:07.968Z,8.02
2022-09-16T19:41:37.663Z,8.75
2022-09-16T19:44:09.115Z,8.55
2022-09-16T19:46:38.507Z,7.13
2022-09-16T19:49:06.891Z,7.47
2022-09-16T19:51:34.694Z,6.18
2022-09-16T19:54:03.219Z,7.20
2022-09-16T19:56:33.222Z,10.27
2022-09-16T19:59:01.775Z,7.93
2022-09-16T20:01:33.052Z,9.23
2022-09-16T20:04:01.238Z,7.30
2022-09-16T20:06:31.718Z,5.47
2022-09-16T20:09:02.095Z,6.82
2022-09-16T20:11:32.340Z,5.43
2022-09-16T20:14:02.089Z,7.93
2022-09-16T20:16:36.579Z,9.70
2022-09-16T20:19:05.458Z,9.27
2022-09-16T20:21:35.006Z,6.80
2022-09-16T20:24:05.606Z,7.88
2022-09-16T20:26:34.102Z,8.32
2022-09-16T20:29:02.497Z,6.00
2022-09-16T20:31:33.112Z,7.65
2022-09-16T20:34:01.080Z,9.00
2022-09-16T20:36:31.013Z,9.25
2022-09-16T20:39:00.591Z,8.23
2022-09-16T20:41:29.670Z,7.40
2022-09-16T20:43:58.032Z,10.43
2022-09-16T20:46:27.788Z,7.43
2022-09-16T20:48:58.430Z,8.80
2022-09-16T20:51:28.534Z,7.88
2022-09-16T20:54:00.185Z,7.03
2022-09-16T20:56:37.463Z,8.32
2022-09-16T20:59:07.413Z,8.63
2022-09-16T21:01:35.537Z,8.07
2022-09-16T21:04:08.390Z,8.13
2022-09-16T21:06:36.802Z,6.65
2022-09-16T21:09:07.173Z,8.67
2022-09-16T21:11:35.381Z,10.20
2022-09-16T21:14:06.345Z,6.88
2022-09-16T21:16:35.982Z,9.13
2022-09-16T21:19:09.164Z,7.57
2022-09-16T21:21:37.796Z,9.18
2022-09-16T21:24:07.079Z,10.20
2022-09-16T21:26:36.451Z,8.88
2022-09-16T21:29:06.393Z,10.35
2022-09-16T21:31:34.816Z,8.50
2022-09-16T21:34:03.373Z,9.35
2022-09-16T21:36:33.643Z,8.40
2022-09-16T21:39:01.609Z,9.13
2022-09-16T21:41:29.617Z,9.63
2022-09-16T21:43:58.662Z,10.00
2022-09-16T21:46:28.676Z,7.95
2022-09-16T21:49:01.174Z,9.10
2022-09-16T21:51:34.814Z,8.87
2022-09-16T21:54:05.474Z,7.82
2022-09-16T21:56:33.509Z,12.77
2022-09-16T21:59:01.301Z,8.20
2022-09-16T22:01:31.545Z,8.93
2022-09-16T22:04:00.803Z,7.70
2022-09-16T22:06:28.778Z,10.73
2022-09-16T22:08:57.632Z,8.35
2022-09-16T22:11:28.453Z,9.32
2022-09-16T22:13:56.837Z,10.13
2022-09-16T22:16:28.776Z,10.18
2022-09-16T22:18:57.583Z,9.43
2022-09-16T22:21:27.180Z,8.63
2022-09-16T22:23:55.123Z,7.45
2022-09-16T22:26:24.181Z,7.57
2022-09-16T22:28:53.394Z,9.77
2022-09-16T22:31:23.124Z,8.20
2022-09-16T22:33:52.171Z,7.95
2022-09-16T22:36:21.876Z,10.77
2022-09-16T22:38:50.380Z,8.23
2022-09-16T22:41:18.452Z,7.57
2022-09-16T22:43:47.732Z,9.15
2022-09-16T22:46:18.308Z,7.63
2022-09-16T22:48:46.623Z,12.07
2022-09-16T22:51:15.814Z,8.88
2022-09-16T22:53:44.294Z,5.70
2022-09-16T22:56:15.298Z,9.70
2022-09-16T22:58:44.108Z,12.40
2022-09-16T23:01:14.041Z,11.38
2022-09-16T23:03:43.902Z,10.23
2022-09-16T23:06:14.764Z,12.10
2022-09-16T23:08:45.541Z,8.05
2022-09-16T23:11:14.744Z,9.55
2022-09-16T23:13:42.925Z,8.93
2022-09-16T23:16:15.110Z,8.65
2022-09-16T23:18:45.741Z,8.38
2022-09-16T23:21:15.278Z,10.32
2022-09-16T23:23:45.427Z,11.02
2022-09-16T23:26:15.200Z,9.23
2022-09-16T23:28:43.535Z,10.65
2022-09-16T23:31:13.579Z,11.50
2022-09-16T23:33:41.896Z,9.88
2022-09-16T23:36:12.643Z,10.65
2022-09-16T23:38:41.979Z,11.32
2022-09-16T23:41:11.445Z,9.23
2022-09-16T23:43:40.261Z,14.35
2022-09-16T23:46:08.262Z,9.43
2022-09-16T23:48:36.172Z,10.90
2022-09-16T23:51:04.947Z,10.57
2022-09-16T23:53:34.641Z,11.85
2022-09-16T23:56:05.932Z,11.50
2022-09-16T23:58:33.725Z,11.65
